createdAt,value
2019-03-12T00:00:51.089Z,2.48
2019-03-12T00:03:22.070Z,2.37
2019-03-12T00:05:53.062Z,2.43
2019-03-12T00:08:23.975Z,2.29
2019-03-12T00:10:55.044Z,2.33
2019-03-12T00:13:25.981Z,2.28
2019-03-12T00:15:56.978Z,2.27
2019-03-12T00:18:28.563Z,2.27
2019-03-12T00:20:59.817Z,2.38
2019-03-12T00:23:30.833Z,2.23
2019-03-12T00:26:01.800Z,2.21
2019-03-12T00:28:32.793Z,2.19
2019-03-12T00:31:03.785Z,2.34
2019-03-12T00:33:34.798Z,2.35
2019-03-12T00:36:05.870Z,2.36
2019-03-12T00:38:36.925Z,2.24
2019-03-12T00:41:07.855Z,2.16
2019-03-12T00:43:38.715Z,2.26
2019-03-12T00:46:09.743Z,2.29
2019-03-12T00:48:40.673Z,2.32
2019-03-12T00:51:11.605Z,2.33
2019-03-12T00:53:42.559Z,2.22
2019-03-12T00:56:13.640Z,2.26
2019-03-12T00:58:44.562Z,2.24
2019-03-12T01:01:15.570Z,2.13
2019-03-12T01:03:46.505Z,2.20
2019-03-12T01:06:17.448Z,2.22
2019-03-12T01:08:48.380Z,2.10
2019-03-12T01:11:19.315Z,2.22
2019-03-12T01:13:50.254Z,2.16
2019-03-12T01:16:21.193Z,2.13
2019-03-12T01:18:52.129Z,2.00
2019-03-12T01:21:23.089Z,2.00
2019-03-12T01:23:53.941Z,2.10
2019-03-12T01:26:24.816Z,2.00
2019-03-12T01:28:55.789Z,2.19
2019-03-12T01:31:26.743Z,1.91
2019-03-12T01:33:57.585Z,1.98
2019-03-12T01:36:28.438Z,1.98
2019-03-12T01:38:59.515Z,1.90
2019-03-12T01:41:30.486Z,1.96
2019-03-12T01:44:01.424Z,1.90
2019-03-12T01:46:32.360Z,1.90
2019-03-12T01:49:03.350Z,1.86
2019-03-12T01:51:34.418Z,1.92
2019-03-12T01:54:06.357Z,1.93
2019-03-12T01:56:37.362Z,1.87
2019-03-12T01:59:08.395Z,1.91
2019-03-12T02:01:39.493Z,1.78
2019-03-12T02:04:10.470Z,1.92
2019-03-12T02:06:41.318Z,1.88
2019-03-12T02:09:12.190Z,2.00
2019-03-12T02:11:43.185Z,1.86
2019-03-12T02:14:24.792Z,1.85
2019-03-12T02:16:55.657Z,2.00
2019-03-12T02:19:26.676Z,1.85
2019-03-12T02:21:57.773Z,2.01
2019-03-12T02:24:28.804Z,2.01
2019-03-12T02:26:59.823Z,1.90
2019-03-12T02:29:30.819Z,1.90
2019-03-12T02:32:01.772Z,1.91
2019-03-12T02:34:33.686Z,1.87
2019-03-12T02:37:05.300Z,1.87
2019-03-12T02:39:36.213Z,1.82
2019-03-12T02:42:07.159Z,1.83
2019-03-12T02:44:38.119Z,1.78
2019-03-12T02:47:08.968Z,1.70
2019-03-12T02:49:39.869Z,1.73
2019-03-12T02:52:10.874Z,1.81
2019-03-12T02:54:41.956Z,1.89
2019-03-12T02:57:12.939Z,2.07
2019-03-12T02:59:43.842Z,1.91
2019-03-12T03:02:14.758Z,1.82
2019-03-12T03:04:45.727Z,1.89
2019-03-12T03:07:18.284Z,1.86
2019-03-12T03:09:49.236Z,1.80
2019-03-12T03:12:20.175Z,1.83
2019-03-12T03:14:51.182Z,1.71
2019-03-12T03:17:22.170Z,1.62
2019-03-12T03:19:53.191Z,1.67
2019-03-12T03:22:24.126Z,1.68
2019-03-12T03:24:55.072Z,1.71
2019-03-12T03:27:29.347Z,1.71
2019-03-12T03:33:05.888Z,1.67
2019-03-12T03:35:36.932Z,1.70
2019-03-12T03:38:07.870Z,1.63
2019-03-12T03:40:38.780Z,1.80
2019-03-12T03:43:09.912Z,1.75
2019-03-12T03:45:40.955Z,1.65
2019-03-12T03:48:12.036Z,1.70
2019-03-12T03:50:43.077Z,1.74
2019-03-12T03:53:14.099Z,1.82
2019-03-12T03:55:45.032Z,1.71
2019-03-12T03:58:15.989Z,1.69
2019-03-12T04:00:47.007Z,1.70
2019-03-12T04:03:18.035Z,1.76
2019-03-12T04:05:49.075Z,1.71
2019-03-12T04:08:20.057Z,1.73
2019-03-12T04:10:51.000Z,1.77
2019-03-12T04:13:21.858Z,1.86
2019-03-12T04:15:52.829Z,1.81
2019-03-12T04:18:23.810Z,1.78
2019-03-12T04:20:54.812Z,1.85
2019-03-12T04:23:25.788Z,1.89
2019-03-12T04:25:56.725Z,2.05
2019-03-12T04:28:27.736Z,1.91
2019-03-12T04:30:58.775Z,1.93
2019-03-12T04:34:00.661Z,1.84
2019-03-12T04:36:32.806Z,1.73
2019-03-12T04:39:05.356Z,1.78
2019-03-12T04:41:37.984Z,1.79
2019-03-12T04:44:08.843Z,1.95
2019-03-12T04:46:39.974Z,1.82
2019-03-12T04:49:11.033Z,1.95
2019-03-12T04:51:42.093Z,2.01
2019-03-12T04:54:12.987Z,2.07
2019-03-12T04:56:43.940Z,2.04
2019-03-12T04:59:14.794Z,2.03
2019-03-12T05:01:45.715Z,2.15
2019-03-12T05:04:16.760Z,2.17
2019-03-12T05:06:47.798Z,2.25
2019-03-12T05:09:18.648Z,2.26
2019-03-12T05:11:49.532Z,2.28
2019-03-12T05:14:26.120Z,2.42
2019-03-12T05:17:00.444Z,2.43
2019-03-12T05:19:31.530Z,2.29
2019-03-12T05:22:02.465Z,2.26
2019-03-12T05:24:33.490Z,2.60
2019-03-12T05:27:04.547Z,2.56
2019-03-12T05:29:35.468Z,2.47
2019-03-12T05:32:09.557Z,2.47
2019-03-12T05:34:42.296Z,2.54
2019-03-12T05:37:13.397Z,2.78
2019-03-12T05:39:44.476Z,2.68
2019-03-12T05:42:15.492Z,2.71
2019-03-12T05:44:47.392Z,2.69
2019-03-12T05:47:19.566Z,2.69
2019-03-12T05:49:51.336Z,2.71
2019-03-12T05:52:22.213Z,2.69
2019-03-12T05:54:53.071Z,2.66
2019-03-12T06:00:27.851Z,2.97
2019-03-12T06:02:58.841Z,2.77
2019-03-12T06:05:29.786Z,2.68
2019-03-12T06:08:00.804Z,2.93
2019-03-12T06:10:32.037Z,3.04
2019-03-12T06:13:03.338Z,3.19
2019-03-12T06:15:34.473Z,3.08
2019-03-12T06:18:05.526Z,3.12
2019-03-12T06:20:36.762Z,3.25
2019-03-12T06:23:08.412Z,3.08
2019-03-12T06:25:39.491Z,3.20
2019-03-12T06:28:10.664Z,3.27
2019-03-12T06:30:44.312Z,3.48
2019-03-12T06:33:17.268Z,3.71
2019-03-12T06:35:55.556Z,4.02
2019-03-12T06:38:31.660Z,3.85
2019-03-12T06:41:04.450Z,4.04
2019-03-12T06:43:53.525Z,5.16
2019-03-12T06:46:38.315Z,4.87
2019-03-12T06:49:13.641Z,4.25
2019-03-12T06:51:52.041Z,3.97
2019-03-12T06:54:24.729Z,3.70
2019-03-12T06:57:06.472Z,3.83
2019-03-12T06:59:39.181Z,3.48
2019-03-12T07:02:11.857Z,3.92
2019-03-12T07:04:57.059Z,3.40
2019-03-12T07:07:48.025Z,3.04
2019-03-12T07:10:32.889Z,3.31
2019-03-12T07:13:05.603Z,3.37
2019-03-12T07:15:40.932Z,3.44
2019-03-12T07:18:13.625Z,3.58
2019-03-12T07:20:48.981Z,3.22
2019-03-12T07:23:21.745Z,3.32
2019-03-12T07:25:56.938Z,3.64
2019-03-12T07:28:50.279Z,3.45
2019-03-12T07:31:28.434Z,3.53
2019-03-12T07:34:17.952Z,3.51
2019-03-12T07:36:56.133Z,3.52
2019-03-12T07:39:28.632Z,3.56
2019-03-12T07:42:03.898Z,3.65
2019-03-12T07:44:52.826Z,3.72
2019-03-12T07:47:43.445Z,3.61
2019-03-12T07:50:21.993Z,3.70
2019-03-12T07:52:54.510Z,4.44
2019-03-12T07:55:29.721Z,4.61
2019-03-12T07:58:01.394Z,4.84
2019-03-12T08:00:49.957Z,4.44
2019-03-12T08:03:31.299Z,4.23
2019-03-12T08:06:22.324Z,5.03
2019-03-12T08:09:04.162Z,4.82
2019-03-12T08:11:41.261Z,4.67
2019-03-12T08:14:13.914Z,4.91
2019-03-12T08:16:46.420Z,4.78
2019-03-12T08:19:35.161Z,4.74
2019-03-12T08:22:13.381Z,5.00
2019-03-12T08:24:45.936Z,5.42
2019-03-12T08:27:26.130Z,4.84
2019-03-12T08:30:16.728Z,4.64
2019-03-12T08:32:49.391Z,4.46
2019-03-12T08:35:24.799Z,4.12
2019-03-12T08:38:03.567Z,4.81
2019-03-12T08:40:52.050Z,4.96
2019-03-12T08:43:16.310Z,4.95
2019-03-12T08:45:49.834Z,5.31
2019-03-12T08:48:27.516Z,4.81
2019-03-12T08:51:05.926Z,5.51
2019-03-12T08:53:41.593Z,5.47
2019-03-12T08:56:17.910Z,5.73
2019-03-12T08:59:08.704Z,5.32
2019-03-12T09:01:43.123Z,5.55
2019-03-12T09:04:18.241Z,4.89
2019-03-12T09:06:50.960Z,5.36
2019-03-12T09:09:24.080Z,5.58
2019-03-12T09:12:08.604Z,5.73
2019-03-12T09:14:47.007Z,6.22
2019-03-12T09:17:37.816Z,6.32
2019-03-12T09:20:27.893Z,5.86
2019-03-12T09:23:00.460Z,5.49
2019-03-12T09:25:36.175Z,5.87
2019-03-12T09:28:08.803Z,5.92
2019-03-12T09:30:51.519Z,6.31
2019-03-12T09:33:35.937Z,6.33
2019-03-12T09:36:08.597Z,6.07
2019-03-12T09:38:43.766Z,5.69
2019-03-12T09:41:28.389Z,5.68
2019-03-12T09:44:00.968Z,5.41
2019-03-12T09:46:45.537Z,5.93
2019-03-12T09:49:21.380Z,5.99
2019-03-12T09:51:56.736Z,5.75
2019-03-12T09:54:44.685Z,6.12
2019-03-12T09:57:26.340Z,5.80
2019-03-12T10:00:16.029Z,5.70
2019-03-12T10:02:47.330Z,5.66
2019-03-12T10:05:19.919Z,5.84
2019-03-12T10:08:01.714Z,5.59
2019-03-12T10:10:40.446Z,5.49
2019-03-12T10:13:28.340Z,5.71
2019-03-12T10:16:01.039Z,5.80
2019-03-12T10:18:33.627Z,5.83
2019-03-12T10:21:08.837Z,5.95
2019-03-12T10:23:41.819Z,5.86
2019-03-12T10:26:19.974Z,5.63
2019-03-12T10:28:52.633Z,5.83
2019-03-12T10:31:28.126Z,5.76
2019-03-12T10:34:10.022Z,6.00
2019-03-12T10:36:45.411Z,6.50
2019-03-12T10:39:55.488Z,6.25
2019-03-12T10:42:40.391Z,6.25
2019-03-12T10:45:29.912Z,6.18
2019-03-12T10:48:01.929Z,5.85
2019-03-12T10:50:33.019Z,5.88
2019-03-12T10:53:04.065Z,5.88
2019-03-12T10:55:35.136Z,6.10
2019-03-12T10:58:06.140Z,6.20
2019-03-12T11:00:37.800Z,5.86
2019-03-12T11:03:08.751Z,5.86
2019-03-12T11:05:46.004Z,5.79
2019-03-12T11:08:12.492Z,5.71
2019-03-12T11:10:43.454Z,6.02
2019-03-12T11:13:15.087Z,5.96
2019-03-12T11:15:46.302Z,6.23
2019-03-12T11:18:17.563Z,6.28
2019-03-12T11:20:48.554Z,6.02
2019-03-12T11:23:19.633Z,6.22
2019-03-12T11:25:50.484Z,6.22
2019-03-12T11:28:21.408Z,6.00
2019-03-12T11:30:53.539Z,6.02
2019-03-12T11:33:24.572Z,5.86
2019-03-12T11:35:55.757Z,6.23
2019-03-12T11:38:26.806Z,5.99
2019-03-12T11:40:57.851Z,6.20
2019-03-12T11:43:28.885Z,6.14
2019-03-12T11:45:59.921Z,6.23
2019-03-12T11:48:30.960Z,6.08
2019-03-12T11:51:01.947Z,6.31
2019-03-12T11:53:32.961Z,6.28
2019-03-12T11:56:04.014Z,6.19
2019-03-12T11:58:35.211Z,6.31
2019-03-12T12:01:09.082Z,6.45
2019-03-12T12:03:40.070Z,6.36
2019-03-12T12:06:11.917Z,6.49
2019-03-12T12:08:43.071Z,6.58
2019-03-12T12:11:15.465Z,6.47
2019-03-12T12:13:46.538Z,6.47
2019-03-12T12:16:17.387Z,6.33
2019-03-12T12:18:48.604Z,6.54
2019-03-12T12:21:19.587Z,6.56
2019-03-12T12:23:50.582Z,6.30
2019-03-12T12:26:21.573Z,6.46
2019-03-12T12:28:52.668Z,6.45
2019-03-12T12:31:23.546Z,6.48
2019-03-12T12:33:54.599Z,6.48
2019-03-12T12:36:25.639Z,6.72
2019-03-12T12:38:56.715Z,6.68
2019-03-12T12:41:27.658Z,6.37
2019-03-12T12:43:58.586Z,6.70
2019-03-12T12:46:30.109Z,6.58
2019-03-12T12:49:01.078Z,6.84
2019-03-12T12:51:32.202Z,6.58
2019-03-12T12:54:03.355Z,6.74
2019-03-12T12:56:34.423Z,6.74
2019-03-12T12:59:05.433Z,6.79
2019-03-12T13:01:36.502Z,6.68
2019-03-12T13:04:08.423Z,6.41
2019-03-12T13:06:39.476Z,6.82
2019-03-12T13:09:10.602Z,6.82
2019-03-12T13:11:42.973Z,6.90
2019-03-12T13:14:13.949Z,6.66
2019-03-12T13:16:44.812Z,6.66
2019-03-12T13:19:15.914Z,6.83
2019-03-12T13:21:47.024Z,6.61
2019-03-12T13:24:17.933Z,6.55
2019-03-12T13:26:49.024Z,6.56
2019-03-12T13:29:20.080Z,6.37
2019-03-12T13:31:50.965Z,6.37
2019-03-12T13:34:21.818Z,6.33
2019-03-12T13:36:52.709Z,6.40
2019-03-12T13:39:24.890Z,6.40
2019-03-12T13:41:55.911Z,6.37
2019-03-12T13:44:26.869Z,6.15
2019-03-12T13:46:57.804Z,6.25
2019-03-12T13:49:28.838Z,6.27
2019-03-12T13:52:00.149Z,6.25
2019-03-12T13:54:31.254Z,6.32
2019-03-12T13:57:02.185Z,6.13
2019-03-12T13:59:33.046Z,6.15
2019-03-12T14:02:04.186Z,6.00
2019-03-12T14:04:36.383Z,6.05
2019-03-12T14:07:07.242Z,6.05
2019-03-12T14:09:38.373Z,6.10
2019-03-12T14:12:09.348Z,6.07
2019-03-12T14:14:40.482Z,5.96
2019-03-12T14:17:11.461Z,5.92
2019-03-12T14:19:42.935Z,5.80
2019-03-12T14:22:13.918Z,5.80
2019-03-12T14:24:44.779Z,5.81
2019-03-12T14:27:15.799Z,5.93
2019-03-12T14:29:46.731Z,5.87
2019-03-12T14:32:18.404Z,5.77
2019-03-12T14:34:49.907Z,5.74
2019-03-12T14:37:20.944Z,5.79
2019-03-12T14:39:51.966Z,5.74
2019-03-12T14:42:22.975Z,5.74
2019-03-12T14:44:54.017Z,5.80
2019-03-12T14:47:24.870Z,5.69
2019-03-12T14:49:55.801Z,5.69
2019-03-12T14:52:26.823Z,5.70
2019-03-12T14:54:59.772Z,5.77
2019-03-12T14:57:30.617Z,5.78
2019-03-12T15:00:01.593Z,5.62
2019-03-12T15:02:34.036Z,5.74
2019-03-12T15:05:07.483Z,5.69
2019-03-12T15:07:38.507Z,5.65
2019-03-12T15:10:11.208Z,5.56
2019-03-12T15:12:42.185Z,5.64
2019-03-12T15:15:14.384Z,5.67
2019-03-12T15:17:45.303Z,5.67
2019-03-12T15:20:16.348Z,5.63
2019-03-12T15:22:47.203Z,5.52
2019-03-12T15:25:18.266Z,5.52
2019-03-12T15:27:49.296Z,5.49
2019-03-12T15:30:22.585Z,5.54
2019-03-12T15:32:53.547Z,5.55
2019-03-12T15:35:24.467Z,5.45
2019-03-12T15:37:55.377Z,5.45
2019-03-12T15:40:26.349Z,5.50
2019-03-12T15:42:57.389Z,5.46
2019-03-12T15:45:28.325Z,5.35
2019-03-12T15:47:59.414Z,5.34
2019-03-12T15:50:30.387Z,5.32
2019-03-12T15:53:01.407Z,5.38
2019-03-12T15:55:32.702Z,5.23
2019-03-12T15:58:03.666Z,5.16
2019-03-12T16:00:34.579Z,5.17
2019-03-12T16:03:05.683Z,5.13
2019-03-12T16:05:36.673Z,5.17
2019-03-12T16:08:07.721Z,5.13
2019-03-12T16:10:38.645Z,5.17
2019-03-12T16:13:10.747Z,5.10
2019-03-12T16:15:41.604Z,5.07
2019-03-12T16:18:14.521Z,5.00
2019-03-12T16:20:45.441Z,5.08
2019-03-12T16:23:16.492Z,4.96
2019-03-12T16:25:47.535Z,5.04
2019-03-12T16:28:18.798Z,4.90
2019-03-12T16:30:50.017Z,4.91
2019-03-12T16:33:21.366Z,4.86
2019-03-12T16:35:52.642Z,4.88
2019-03-12T16:38:24.038Z,4.94
2019-03-12T16:40:55.361Z,4.96
2019-03-12T16:43:27.016Z,4.93
2019-03-12T16:45:58.385Z,4.74
2019-03-12T16:48:29.600Z,4.78
2019-03-12T16:51:00.561Z,4.76
2019-03-12T16:53:31.684Z,4.66
2019-03-12T16:56:02.938Z,4.69
2019-03-12T16:58:34.393Z,4.63
2019-03-12T17:01:05.673Z,4.65
2019-03-12T17:03:36.874Z,4.62
2019-03-12T17:06:08.275Z,4.55
2019-03-12T17:08:39.666Z,4.57
2019-03-12T17:11:11.049Z,4.54
2019-03-12T17:13:42.445Z,4.50
2019-03-12T17:16:14.008Z,4.45
2019-03-12T17:18:45.315Z,4.43
2019-03-12T17:21:16.641Z,4.40
2019-03-12T17:23:48.006Z,4.41
2019-03-12T17:26:19.434Z,4.40
2019-03-12T17:28:50.774Z,4.41
2019-03-12T17:31:22.155Z,4.33
2019-03-12T17:33:53.469Z,4.30
2019-03-12T17:36:24.810Z,4.33
2019-03-12T17:38:56.182Z,4.38
2019-03-12T17:41:27.309Z,4.27
2019-03-12T17:43:58.387Z,4.29
2019-03-12T17:46:29.499Z,4.33
2019-03-12T17:49:00.551Z,4.32
2019-03-12T17:51:31.868Z,4.43
2019-03-12T17:54:03.005Z,4.26
2019-03-12T17:56:34.501Z,4.29
2019-03-12T17:59:05.776Z,4.27
2019-03-12T18:01:37.102Z,4.24
2019-03-12T18:04:08.446Z,4.21
2019-03-12T18:06:39.738Z,4.18
2019-03-12T18:09:11.034Z,4.14
2019-03-12T18:11:42.667Z,4.15
2019-03-12T18:14:14.153Z,4.17
2019-03-12T18:16:45.530Z,4.21
2019-03-12T18:19:16.873Z,4.22
2019-03-12T18:21:48.364Z,4.25
2019-03-12T18:24:19.619Z,4.26
2019-03-12T18:26:51.067Z,4.23
2019-03-12T18:29:23.521Z,4.27
2019-03-12T18:31:54.820Z,4.24
2019-03-12T18:34:26.119Z,4.18
2019-03-12T18:36:58.345Z,4.15
2019-03-12T18:39:29.677Z,4.15
2019-03-12T18:42:01.104Z,4.15
2019-03-12T18:44:32.477Z,4.12
2019-03-12T18:47:03.763Z,4.10
2019-03-12T18:49:35.088Z,4.09
2019-03-12T18:52:06.415Z,4.06
2019-03-12T18:54:37.554Z,4.08
2019-03-12T18:57:08.812Z,4.06
2019-03-12T18:59:40.280Z,4.03
2019-03-12T19:02:11.927Z,4.01
2019-03-12T19:04:43.270Z,3.99
2019-03-12T19:07:18.328Z,3.97
2019-03-12T19:09:47.399Z,3.94
2019-03-12T19:12:18.655Z,3.96
2019-03-12T19:14:50.195Z,3.89
2019-03-12T19:17:21.569Z,3.84
2019-03-12T19:19:52.904Z,3.86
2019-03-12T19:22:24.422Z,3.86
2019-03-12T19:24:55.731Z,3.81
2019-03-12T19:27:26.987Z,3.75
2019-03-12T19:29:58.595Z,3.64
2019-03-12T19:32:31.451Z,3.64
2019-03-12T19:35:02.818Z,3.63
2019-03-12T19:37:34.355Z,3.52
2019-03-12T19:40:11.717Z,3.28
2019-03-12T19:42:44.277Z,3.24
2019-03-12T19:45:16.288Z,3.23
2019-03-12T19:47:47.532Z,3.27
2019-03-12T19:50:22.022Z,3.63
2019-03-12T19:52:53.445Z,3.26
2019-03-12T19:55:44.996Z,2.81
2019-03-12T19:58:16.268Z,2.79
2019-03-12T20:00:48.304Z,2.84
2019-03-12T20:03:19.635Z,2.94
2019-03-12T20:05:50.976Z,3.03
2019-03-12T20:08:22.219Z,3.10
2019-03-12T20:11:26.337Z,3.09
2019-03-12T20:14:16.070Z,3.05
2019-03-12T20:17:22.879Z,3.03
2019-03-12T20:20:24.583Z,3.10
2019-03-12T20:23:31.957Z,3.10
2019-03-12T20:26:24.127Z,3.08
2019-03-12T20:29:17.953Z,3.02
2019-03-12T20:32:21.843Z,2.96
2019-03-12T20:35:13.053Z,2.94
2019-03-12T20:38:20.802Z,2.76
2019-03-12T20:41:07.350Z,2.60
2019-03-12T20:43:47.551Z,2.55
2019-03-12T20:46:55.202Z,2.53
2019-03-12T20:49:55.172Z,2.44
2019-03-12T20:52:32.206Z,2.37
2019-03-12T20:55:38.354Z,2.50
2019-03-12T20:58:31.159Z,2.54
2019-03-12T21:01:38.935Z,2.65
2019-03-12T21:04:28.749Z,2.68
2019-03-12T21:07:24.513Z,2.65
2019-03-12T21:10:32.656Z,2.67
2019-03-12T21:13:16.011Z,2.69
2019-03-12T21:15:55.908Z,2.69
2019-03-12T21:18:54.148Z,2.55
2019-03-12T21:21:34.059Z,2.56
2019-03-12T21:24:20.539Z,2.52
2019-03-12T21:27:29.773Z,2.49
2019-03-12T21:29:59.930Z,2.53
2019-03-12T21:32:31.032Z,2.58
2019-03-12T21:35:02.209Z,2.53
2019-03-12T21:37:33.423Z,2.54
2019-03-12T21:40:07.439Z,2.42
2019-03-12T21:42:38.494Z,2.36
2019-03-12T21:45:11.483Z,2.28
2019-03-12T21:47:42.511Z,2.37
2019-03-12T21:50:13.570Z,2.36
2019-03-12T21:52:44.690Z,2.33
2019-03-12T21:55:15.779Z,2.34
2019-03-12T21:57:48.132Z,2.36
2019-03-12T22:00:20.813Z,2.41
2019-03-12T22:02:51.923Z,2.27
2019-03-12T22:05:23.019Z,2.17
2019-03-12T22:07:54.217Z,2.05
2019-03-12T22:10:25.300Z,2.07
2019-03-12T22:12:56.568Z,2.01
2019-03-12T22:15:29.906Z,1.91
2019-03-12T22:18:01.356Z,1.91
2019-03-12T22:20:32.438Z,2.06
2019-03-12T22:23:05.149Z,2.08
2019-03-12T22:25:37.202Z,2.07
2019-03-12T22:28:08.385Z,2.15
2019-03-12T22:30:39.551Z,2.18
2019-03-12T22:33:10.640Z,2.24
2019-03-12T22:35:41.672Z,2.34
2019-03-12T22:38:12.987Z,2.36
2019-03-12T22:40:43.998Z,2.47
2019-03-12T22:43:15.009Z,2.42
2019-03-12T22:45:46.156Z,2.45
2019-03-12T22:48:17.179Z,2.44
2019-03-12T22:50:48.222Z,2.36
2019-03-12T22:53:19.196Z,2.35
2019-03-12T22:55:50.316Z,2.38
2019-03-12T22:58:21.461Z,2.39
2019-03-12T23:01:10.626Z,2.39
2019-03-12T23:03:59.319Z,2.42
2019-03-12T23:06:48.178Z,2.41
2019-03-12T23:09:37.691Z,2.39
2019-03-12T23:12:10.320Z,2.45
2019-03-12T23:14:43.045Z,2.51
2019-03-12T23:17:15.769Z,2.65
2019-03-12T23:19:48.370Z,2.66
2019-03-12T23:22:19.658Z,2.60
2019-03-12T23:24:50.806Z,2.57
2019-03-12T23:27:22.036Z,2.62
2019-03-12T23:29:53.209Z,2.57
2019-03-12T23:32:24.320Z,2.59
2019-03-12T23:34:55.359Z,2.60
2019-03-12T23:37:26.432Z,2.63
2019-03-12T23:39:57.573Z,2.62
2019-03-12T23:42:28.626Z,2.74
2019-03-12T23:44:59.658Z,2.79
2019-03-12T23:47:30.675Z,2.83
2019-03-12T23:50:01.701Z,2.93
2019-03-12T23:52:33.721Z,3.02
2019-03-12T23:55:07.143Z,3.11
2019-03-12T23:57:38.090Z,3.07
